Mendota Heights, Minnesota
Current Conditions -  °F | °C
As of 7:53 PM on Saturday 20 Dec 2014 (Local Time) from KMSP Reporting Station
Overcast Overcast  
Wind Chill: 24°   Ceiling: 1300
Heat Index: 32°   Visibility: 8mi
Dew Point: 27°   Wind: 10mph
Humidity: 82%   Direction: 170°S
Pressure: 30.11"   Gusts: NA
Location:  44.8725°N, 93.1463°W
Report Text: KMSP 210153Z 17009KT 8SM OVC013 00/M03 A3011 RMK AO2 SLP206 T00001028
Loading
Personal Weather Stations






























Interactive Weather Map New forecast layout! Learn more

10-Day Weather Forecast

Advertisements
Track Severe Weather on mobile